Time;durP1;ratioP1;P1;durP2;ratioP2;P2;SDS_P1;SDS_P2;PMS_P1;PMS_P2;Temp;Humidity;BMP_temperature;BMP_pressure;BME280_temperature;BME280_humidity;BME280_pressure;Samples;Min_cycle;Max_cycle;Signal;HPM_P1;HPM_P2
2021/12/07 00:01:50;;;;;;;20.63;3.55;;;;;;;4.83;100.00;100556.44;5031046;28;20048;-77
2021/12/07 00:04:16;;;;;;;27.27;3.63;;;;;;;4.88;100.00;100554.88;5032173;28;20017;-78
2021/12/07 00:06:42;;;;;;;16.73;2.80;;;;;;;4.95;100.00;100562.13;5032648;28;20363;-78
2021/12/07 00:09:12;;;;;;;20.13;3.15;;;;;;;4.99;100.00;100557.88;5034171;28;20405;-77
2021/12/07 00:11:37;;;;;;;18.80;2.70;;;;;;;5.12;100.00;100564.41;5033406;28;20116;-78
2021/12/07 00:14:11;;;;;;;20.00;3.17;;;;;;;5.10;100.00;100566.97;5039003;28;20096;-77
2021/12/07 00:16:37;;;;;;;11.25;2.55;;;;;;;5.13;100.00;100576.59;5030965;28;20040;-77
2021/12/07 00:19:03;;;;;;;14.00;2.25;;;;;;;5.16;100.00;100574.13;5037340;28;20401;-77
2021/12/07 00:21:28;;;;;;;26.20;3.47;;;;;;;5.22;100.00;100563.88;5034027;28;20022;-77
2021/12/07 00:23:54;;;;;;;17.77;2.92;;;;;;;5.21;100.00;100575.16;5034129;28;20473;-77
2021/12/07 00:26:19;;;;;;;12.77;2.42;;;;;;;5.29;100.00;100573.69;5033460;28;20029;-77
2021/12/07 00:28:45;;;;;;;16.38;2.72;;;;;;;5.31;100.00;100585.06;5038836;28;20545;-77
2021/12/07 00:31:39;;;;;;;18.10;3.17;;;;;;;5.29;100.00;100573.69;5036264;28;20033;-77
2021/12/07 00:36:44;;;;;;;11.80;1.90;;;;;;;5.27;98.44;100598.81;5037786;28;20036;-77
2021/12/07 00:39:12;;;;;;;14.25;2.17;;;;;;;5.28;97.72;100597.13;5038571;28;20125;-77
2021/12/07 00:41:38;;;;;;;7.18;2.13;;;;;;;5.34;96.53;100590.38;5032909;28;20033;-77
2021/12/07 00:44:04;;;;;;;14.10;2.45;;;;;;;5.30;97.01;100598.91;5034812;28;20025;-77
2021/12/07 00:46:31;;;;;;;6.80;1.70;;;;;;;5.29;97.52;100610.22;5036654;28;20477;-77
2021/12/07 00:48:56;;;;;;;14.07;2.63;;;;;;;5.24;99.03;100617.00;5034414;28;20055;-77
2021/12/07 00:51:22;;;;;;;10.88;1.90;;;;;;;5.24;98.74;100620.47;5035615;28;20020;-77
2021/12/07 00:53:47;;;;;;;17.15;2.58;;;;;;;5.20;98.91;100615.13;5049273;28;20070;-77
2021/12/07 00:56:13;;;;;;;19.90;2.88;;;;;;;5.19;98.61;100628.97;5039558;28;20024;-77
2021/12/07 00:58:38;;;;;;;21.20;1.95;;;;;;;5.21;97.95;100622.13;5039171;28;20592;-77
2021/12/07 01:01:10;;;;;;;14.48;2.22;;;;;;;5.21;97.52;100622.13;5031984;28;20041;-77
2021/12/07 01:03:36;;;;;;;12.60;1.98;;;;;;;5.21;97.48;100627.34;5031931;28;20025;-77
2021/12/07 01:06:31;;;;;;;17.67;3.30;;;;;;;5.26;96.54;100637.91;5032095;28;20032;-77
2021/12/07 01:09:40;;;;;;;14.02;2.53;;;;;;;5.28;95.60;100639.75;5035678;28;20082;-77
2021/12/07 01:25:34;;;;;;;14.52;2.53;;;;;;;5.14;96.13;100673.19;5030018;28;20124;-76
2021/12/07 01:28:07;;;;;;;11.73;2.25;;;;;;;5.12;95.44;100674.81;5032924;28;20095;-76
2021/12/07 01:30:42;;;;;;;12.80;2.08;;;;;;;5.09;96.41;100673.81;5033221;28;20113;-76
2021/12/07 01:43:59;;;;;;;15.43;1.67;;;;;;;4.95;96.39;100682.06;5038954;28;20033;-76
2021/12/07 01:59:57;;;;;;;11.27;1.92;;;;;;;5.03;95.53;100714.50;5031920;28;20087;-76
2021/12/07 02:02:26;;;;;;;14.02;2.35;;;;;;;5.03;95.98;100717.13;5037729;28;20385;-76
2021/12/07 02:04:52;;;;;;;17.63;2.42;;;;;;;5.04;96.90;100724.09;5024369;28;20049;-76
2021/12/07 02:07:18;;;;;;;10.70;2.42;;;;;;;5.10;96.83;100725.16;5031937;28;20559;-76
2021/12/07 02:09:48;;;;;;;7.32;2.35;;;;;;;5.12;96.53;100731.34;5029610;28;20104;-76
2021/12/07 02:12:14;;;;;;;15.23;3.00;;;;;;;5.16;96.29;100741.03;5036058;28;20025;-76
2021/12/07 02:14:41;;;;;;;16.48;2.22;;;;;;;5.13;96.64;100739.22;5031470;28;20029;-76
2021/12/07 02:17:10;;;;;;;28.48;2.45;;;;;;;5.21;96.28;100747.31;5038404;28;20048;-76
2021/12/07 02:19:37;;;;;;;10.40;2.25;;;;;;;5.13;95.71;100734.00;5027477;28;20034;-76
2021/12/07 02:22:03;;;;;;;14.82;2.00;;;;;;;5.10;96.52;100733.88;5030926;28;20033;-76
2021/12/07 02:24:29;;;;;;;12.85;2.33;;;;;;;5.04;96.85;100749.28;5032135;28;20026;-76
2021/12/07 02:26:55;;;;;;;18.45;2.33;;;;;;;5.01;96.34;100751.78;5040199;28;20054;-77
2021/12/07 02:29:22;;;;;;;10.13;1.95;;;;;;;4.99;96.80;100756.97;5040906;28;20387;-76
2021/12/07 02:31:49;;;;;;;19.30;3.08;;;;;;;4.97;96.53;100766.44;5040025;28;20033;-76
2021/12/07 02:34:15;;;;;;;15.55;1.95;;;;;;;4.96;96.35;100762.03;5039026;28;20056;-76
2021/12/07 02:36:42;;;;;;;9.90;2.05;;;;;;;4.98;96.14;100767.31;5037802;28;20029;-76
2021/12/07 02:39:09;;;;;;;11.65;2.08;;;;;;;5.04;95.46;100771.03;5034588;28;20037;-76
2021/12/07 02:41:36;;;;;;;9.90;2.47;;;;;;;5.01;95.75;100776.13;5035297;28;20025;-76
2021/12/07 02:44:05;;;;;;;13.52;2.45;;;;;;;5.02;95.61;100777.06;5034786;28;20071;-76
2021/12/07 02:46:31;;;;;;;11.73;1.80;;;;;;;4.98;95.91;100785.56;5040977;28;20041;-76
2021/12/07 02:48:57;;;;;;;9.68;2.03;;;;;;;4.98;95.74;100786.47;5035059;28;20033;-76
2021/12/07 02:51:22;;;;;;;16.33;2.50;;;;;;;5.01;94.84;100775.25;5036648;28;20032;-76
2021/12/07 02:53:48;;;;;;;11.38;2.08;;;;;;;5.07;94.63;100788.53;5035577;28;20038;-76
2021/12/07 02:56:13;;;;;;;11.23;1.80;;;;;;;5.09;94.57;100783.34;5042672;28;20061;-77
2021/12/07 02:58:42;;;;;;;12.77;2.85;;;;;;;5.09;95.42;100799.00;5034168;28;20068;-76
2021/12/07 03:01:16;;;;;;;11.43;2.47;;;;;;;5.04;95.50;100791.91;5035702;28;20179;-76
2021/12/07 03:04:04;;;;;;;9.55;2.63;;;;;;;5.03;95.86;100792.75;5041210;28;20393;-77
2021/12/07 03:06:48;;;;;;;16.38;2.47;;;;;;;5.02;96.75;100792.69;5039434;28;20361;-77
2021/12/07 03:28:31;;;;;;;10.15;1.63;;;;;;;5.19;97.62;100840.28;5034666;28;20072;-76
2021/12/07 03:30:56;;;;;;;16.42;1.77;;;;;;;5.24;98.17;100833.50;5036878;28;20058;-76
2021/12/07 03:33:22;;;;;;;20.17;2.40;;;;;;;5.23;98.55;100835.22;5037823;28;20525;-77
2021/12/07 03:35:47;;;;;;;15.27;2.58;;;;;;;5.23;98.96;100843.03;5042446;28;20505;-76
2021/12/07 03:38:13;;;;;;;15.85;2.30;;;;;;;5.22;98.90;100848.22;5034439;28;20116;-76
2021/12/07 03:40:39;;;;;;;11.25;2.15;;;;;;;5.22;99.61;100848.22;5033894;28;20539;-77
2021/12/07 03:43:06;;;;;;;17.40;2.25;;;;;;;5.20;98.86;100842.06;5040272;28;20056;-76
2021/12/07 03:45:32;;;;;;;29.48;2.97;;;;;;;5.14;99.89;100849.63;5032815;28;20371;-76
2021/12/07 03:47:59;;;;;;;16.20;2.08;;;;;;;5.13;99.76;100853.06;5037831;28;20068;-77
2021/12/07 03:50:25;;;;;;;8.43;1.80;;;;;;;5.14;99.24;100849.63;5014338;28;20037;-77
2021/12/07 03:52:52;;;;;;;13.00;2.10;;;;;;;5.18;98.49;100852.44;5034125;28;20116;-77
2021/12/07 03:55:18;;;;;;;11.88;2.63;;;;;;;5.21;98.22;100851.66;5038776;28;20483;-77
2021/12/07 03:57:44;;;;;;;10.70;2.35;;;;;;;5.22;97.64;100848.22;5036201;28;20385;-77
2021/12/07 04:00:14;;;;;;;16.10;2.00;;;;;;;5.23;97.51;100850.88;5034251;28;20041;-77
2021/12/07 04:02:41;;;;;;;6.68;1.52;;;;;;;5.21;97.66;100844.72;5034953;28;21565;-77
2021/12/07 04:05:17;;;;;;;11.88;2.20;;;;;;;5.19;96.85;100858.53;5033562;28;20120;-77
2021/12/07 04:07:50;;;;;;;6.10;1.67;;;;;;;5.14;98.14;100854.84;5030730;28;20063;-76
2021/12/07 04:10:18;;;;;;;19.35;2.45;;;;;;;5.13;97.70;100863.50;5038201;28;20099;-77
2021/12/07 04:12:44;;;;;;;9.35;1.45;;;;;;;5.10;97.68;100858.16;5025649;28;20354;-77
2021/12/07 04:15:14;;;;;;;11.95;1.90;;;;;;;5.09;98.19;100859.91;5040341;28;20036;-77
2021/12/07 04:17:40;;;;;;;11.82;1.98;;;;;;;5.09;98.16;100877.25;5033582;28;20191;-77
2021/12/07 04:20:11;;;;;;;10.43;1.95;;;;;;;5.11;98.36;100865.19;5035439;28;20108;-77
2021/12/07 04:22:37;;;;;;;19.98;2.38;;;;;;;5.07;98.21;100859.84;5033724;28;20426;-77
2021/12/07 04:25:06;;;;;;;11.90;1.88;;;;;;;5.08;98.10;100876.38;5041459;28;20111;-77
2021/12/07 04:27:35;;;;;;;11.07;1.60;;;;;;;5.06;98.20;100868.50;5034606;28;20056;-77
2021/12/07 04:30:01;;;;;;;8.68;1.67;;;;;;;5.02;97.98;100863.13;5034720;28;20353;-77
2021/12/07 04:32:28;;;;;;;14.07;2.22;;;;;;;5.00;98.41;100883.88;5033426;28;20373;-77
2021/12/07 04:34:53;;;;;;;12.00;2.20;;;;;;;4.93;98.74;100881.00;5033124;28;20436;-77
2021/12/07 04:37:19;;;;;;;7.43;2.28;;;;;;;4.81;99.62;100881.38;5033390;28;20033;-77
2021/12/07 04:39:44;;;;;;;11.80;1.92;;;;;;;4.81;98.79;100882.25;5039486;28;20055;-77
2021/12/07 04:42:10;;;;;;;9.38;1.90;;;;;;;4.83;98.78;100895.34;5040441;28;20025;-77
2021/12/07 04:44:42;;;;;;;12.27;1.80;;;;;;;4.83;98.94;100884.91;5040707;28;20089;-79
2021/12/07 04:47:16;;;;;;;15.90;1.92;;;;;;;4.85;98.05;100883.28;5036690;28;20033;-77
2021/12/07 04:57:48;;;;;;;13.57;2.22;;;;;;;4.90;97.05;100886.97;5034768;28;19920;-77
2021/12/07 05:00:21;;;;;;;15.60;2.17;;;;;;;4.92;96.76;100880.09;5031055;28;20052;-78
2021/12/07 05:02:54;;;;;;;13.38;2.28;;;;;;;4.96;96.95;100888.94;5039298;28;20037;-77
2021/12/07 05:05:22;;;;;;;8.48;2.58;;;;;;;4.96;96.93;100897.63;5033948;28;20397;-77
2021/12/07 05:07:52;;;;;;;11.02;1.92;;;;;;;4.98;97.45;100896.00;5032904;28;20025;-76
2021/12/07 05:10:31;;;;;;;7.78;2.55;;;;;;;4.99;97.48;100902.09;5027446;28;20025;-77
2021/12/07 05:18:33;;;;;;;9.45;1.55;;;;;;;4.95;97.60;100908.91;5033673;28;20037;-77
2021/12/07 05:23:56;;;;;;;12.10;1.58;;;;;;;4.91;97.05;100914.84;5027036;28;20087;-77
2021/12/07 05:40:01;;;;;;;7.60;2.42;;;;;;;4.76;96.56;100961.09;5039471;28;20059;-76
2021/12/07 05:42:27;;;;;;;10.05;2.15;;;;;;;4.65;97.21;100953.75;5034588;28;20018;-76
2021/12/07 05:44:54;;;;;;;9.38;1.73;;;;;;;4.57;97.46;100962.94;5032238;28;20022;-76
2021/12/07 05:47:20;;;;;;;14.48;2.00;;;;;;;4.53;97.19;100961.00;5039002;28;20029;-76
2021/12/07 05:49:46;;;;;;;10.18;1.95;;;;;;;4.46;97.47;100961.59;5031831;28;20033;-76
2021/12/07 05:52:12;;;;;;;7.80;2.15;;;;;;;4.32;97.84;100953.19;5031576;28;20030;-76
2021/12/07 05:54:38;;;;;;;9.98;2.15;;;;;;;4.16;99.23;100951.59;5030285;28;20036;-76
2021/12/07 05:57:05;;;;;;;14.07;2.67;;;;;;;4.04;99.86;100958.06;5034649;28;20425;-76
2021/12/07 05:59:30;;;;;;;16.20;2.08;;;;;;;3.95;100.00;100949.84;5032168;28;20033;-78
2021/12/07 06:01:56;;;;;;;11.43;2.20;;;;;;;3.84;100.00;100944.13;5029568;28;20029;-78
2021/12/07 06:04:21;;;;;;;10.00;1.92;;;;;;;3.76;100.00;100944.59;5038503;28;20033;-78
2021/12/07 06:06:47;;;;;;;10.23;1.50;;;;;;;3.65;100.00;100932.00;5037172;28;20030;-78
2021/12/07 06:09:12;;;;;;;8.48;1.48;;;;;;;3.53;100.00;100941.84;5034770;28;20140;-78
2021/12/07 06:11:38;;;;;;;11.90;2.45;;;;;;;3.41;100.00;100951.69;5039227;28;20033;-78
2021/12/07 06:14:03;;;;;;;19.00;2.58;;;;;;;3.38;100.00;100963.69;5035701;28;20017;-78
2021/12/07 06:16:31;;;;;;;12.65;2.42;;;;;;;3.31;100.00;100956.44;5042085;28;20032;-78
2021/12/07 06:18:57;;;;;;;16.92;3.00;;;;;;;3.22;100.00;100956.00;5033694;28;20029;-76
2021/12/07 06:21:25;;;;;;;14.82;2.30;;;;;;;3.15;100.00;100960.00;5041820;28;20025;-75
2021/12/07 06:23:52;;;;;;;10.07;2.45;;;;;;;3.04;100.00;100954.28;5033893;28;20044;-76
2021/12/07 06:26:17;;;;;;;11.77;3.10;;;;;;;2.95;100.00;100952.94;5032580;28;20033;-77
2021/12/07 06:28:43;;;;;;;14.48;2.50;;;;;;;2.91;100.00;100961.41;5042921;28;20052;-80
2021/12/07 06:31:08;;;;;;;8.05;2.40;;;;;;;2.83;100.00;100955.81;5037175;28;20512;-81
2021/12/07 06:33:34;;;;;;;20.67;3.05;;;;;;;2.74;100.00;100960.56;5035803;28;20033;-79
2021/12/07 06:36:02;;;;;;;12.82;2.13;;;;;;;2.63;100.00;100963.53;5038141;28;20055;-77
2021/12/07 06:38:30;;;;;;;13.27;2.88;;;;;;;2.56;100.00;100963.13;5037026;28;20059;-80
2021/12/07 06:40:57;;;;;;;9.45;2.90;;;;;;;2.52;100.00;100967.25;5036507;28;20021;-79
2021/12/07 06:43:23;;;;;;;8.55;2.53;;;;;;;2.50;100.00;100966.31;5034555;28;20033;-75
2021/12/07 06:45:49;;;;;;;11.95;2.50;;;;;;;2.42;100.00;100968.50;5036995;28;20036;-75
2021/12/07 06:48:15;;;;;;;14.80;3.10;;;;;;;2.35;100.00;100967.28;5037142;28;20033;-75
2021/12/07 06:50:41;;;;;;;11.23;2.88;;;;;;;2.30;100.00;100967.88;5037153;28;20129;-76
2021/12/07 06:53:06;;;;;;;12.00;2.67;;;;;;;2.27;100.00;100965.13;5034399;28;20034;-77
2021/12/07 06:55:33;;;;;;;26.05;5.13;;;;;;;2.25;100.00;100965.06;5029786;28;20036;-78
2021/12/07 06:57:58;;;;;;;14.30;3.10;;;;;;;2.25;100.00;100967.66;5035089;28;20114;-75
2021/12/07 07:00:25;;;;;;;13.88;3.97;;;;;;;2.24;100.00;100967.53;5033066;28;20561;-76
2021/12/07 07:02:51;;;;;;;13.90;3.33;;;;;;;2.23;100.00;100963.19;5026165;28;20101;-76
2021/12/07 07:05:17;;;;;;;16.80;4.15;;;;;;;2.20;100.00;100974.28;5036630;28;20033;-77
2021/12/07 07:07:43;;;;;;;17.08;3.30;;;;;;;2.18;100.00;100979.41;5033312;28;20026;-76
2021/12/07 07:10:12;;;;;;;12.18;4.00;;;;;;;2.20;100.00;100974.28;5029325;28;20060;-77
2021/12/07 07:12:38;;;;;;;5.78;3.75;;;;;;;2.22;100.00;100985.63;5031566;28;20112;-76
2021/12/07 07:15:05;;;;;;;13.20;3.38;;;;;;;2.18;100.00;100979.41;5034456;28;20780;-76
2021/12/07 07:17:31;;;;;;;12.15;3.28;;;;;;;2.21;100.00;100980.38;5036311;28;20036;-75
2021/12/07 07:19:56;;;;;;;20.13;3.55;;;;;;;2.23;100.00;100983.97;5036427;28;20033;-75
2021/12/07 07:22:22;;;;;;;17.00;3.80;;;;;;;2.21;100.00;100986.44;5033607;28;20040;-76
2021/12/07 07:24:47;;;;;;;15.70;3.92;;;;;;;2.17;100.00;100976.72;5032353;28;20025;-76
2021/12/07 07:27:13;;;;;;;14.35;3.05;;;;;;;2.15;100.00;100971.44;5032228;28;20098;-76
2021/12/07 07:29:38;;;;;;;14.70;3.92;;;;;;;2.17;100.00;100961.13;5037192;28;20039;-77
2021/12/07 07:32:04;;;;;;;14.45;3.55;;;;;;;2.19;100.00;100951.75;5027898;28;20049;-78
2021/12/07 07:34:30;;;;;;;13.35;3.70;;;;;;;2.21;100.00;100947.50;5034528;28;20025;-78
2021/12/07 07:36:55;;;;;;;17.83;3.33;;;;;;;2.21;100.00;100947.50;5030770;28;20109;-79
2021/12/07 07:39:22;;;;;;;15.82;4.30;;;;;;;2.20;100.00;100948.34;5036681;28;20022;-78
2021/12/07 07:41:48;;;;;;;15.68;3.45;;;;;;;2.19;100.00;100949.13;5035837;28;20033;-78
2021/12/07 07:44:14;;;;;;;13.77;3.58;;;;;;;2.15;100.00;100945.47;5033295;28;20604;-80
2021/12/07 07:46:40;;;;;;;16.58;4.75;;;;;;;2.15;100.00;100948.06;5034686;28;20041;-80
2021/12/07 07:49:06;;;;;;;19.10;4.15;;;;;;;2.14;100.00;100950.59;5035057;28;20029;-80
2021/12/07 07:51:33;;;;;;;10.48;3.40;;;;;;;2.16;100.00;100954.19;5037250;28;20032;-79
2021/12/07 07:53:59;;;;;;;11.05;3.50;;;;;;;2.17;100.00;100950.75;5037169;28;20386;-78
2021/12/07 07:56:26;;;;;;;14.23;3.10;;;;;;;2.23;100.00;100951.09;5035413;28;20109;-79
2021/12/07 07:58:53;;;;;;;13.23;5.35;;;;;;;2.27;100.00;100953.03;5034565;28;20059;-80
2021/12/07 08:01:19;;;;;;;12.43;3.33;;;;;;;2.41;100.00;100963.22;5035209;28;20044;-80
2021/12/07 08:03:44;;;;;;;15.80;4.05;;;;;;;2.59;100.00;100956.41;5034167;28;20757;-77
2021/12/07 08:06:09;;;;;;;20.88;3.83;;;;;;;2.80;100.00;100955.69;5032460;28;20125;-78
2021/12/07 08:08:35;;;;;;;11.88;3.05;;;;;;;2.96;100.00;100960.81;5035799;28;20033;-78
2021/12/07 08:11:02;;;;;;;14.95;3.58;;;;;;;3.12;100.00;100956.34;5035184;28;20044;-78
2021/12/07 08:13:30;;;;;;;11.55;3.10;;;;;;;3.17;100.00;100963.59;5032931;28;20074;-78
2021/12/07 08:15:56;;;;;;;24.25;3.30;;;;;;;3.25;100.00;100956.13;5034424;28;20033;-79
2021/12/07 08:18:22;;;;;;;12.82;3.25;;;;;;;3.32;100.00;100953.03;5034097;28;20465;-79
2021/12/07 08:20:48;;;;;;;12.45;3.53;;;;;;;3.35;100.00;100960.97;5035701;28;20022;-78
2021/12/07 08:23:13;;;;;;;17.88;3.15;;;;;;;3.38;100.00;100955.91;5034935;28;20051;-78
2021/12/07 08:25:46;;;;;;;13.98;3.47;;;;;;;3.43;100.00;100960.44;5033797;28;20025;-78
2021/12/07 08:28:13;;;;;;;15.07;3.40;;;;;;;3.48;100.00;100956.34;5038389;28;20045;-78
2021/12/07 08:30:41;;;;;;;18.50;3.60;;;;;;;3.55;100.00;100950.59;5041361;28;20032;-78
2021/12/07 08:33:07;;;;;;;18.40;3.33;;;;;;;3.63;100.00;100957.03;5035148;28;20393;-78
2021/12/07 08:35:33;;;;;;;17.15;2.88;;;;;;;3.74;100.00;100952.34;5036346;28;20051;-77
2021/12/07 08:37:58;;;;;;;12.23;3.08;;;;;;;3.83;100.00;100952.75;5037274;28;20112;-78
2021/12/07 08:40:27;;;;;;;8.68;2.70;;;;;;;3.91;100.00;100950.50;5037377;28;20147;-78
2021/12/07 08:42:53;;;;;;;8.43;2.70;;;;;;;3.95;100.00;100954.13;5033150;28;20435;-79
2021/12/07 08:45:20;;;;;;;10.23;3.13;;;;;;;4.02;100.00;100959.69;5039807;28;20127;-78
2021/12/07 08:47:48;;;;;;;21.13;4.70;;;;;;;4.10;100.00;100952.22;5037754;28;20029;-79
2021/12/07 08:50:25;;;;;;;15.55;3.85;;;;;;;4.17;100.00;100935.16;5032507;28;20079;-78
2021/12/07 08:52:53;;;;;;;13.57;3.22;;;;;;;4.22;100.00;100941.47;5036103;28;20034;-79
2021/12/07 09:01:04;;;;;;;14.50;3.40;;;;;;;4.37;100.00;100944.72;5033660;28;20068;-78
2021/12/07 09:03:29;;;;;;;12.43;3.70;;;;;;;4.43;100.00;100954.53;5034366;28;20025;-74
2021/12/07 09:05:55;;;;;;;17.75;4.05;;;;;;;4.47;100.00;100947.75;5030938;28;20033;-75
2021/12/07 09:08:21;;;;;;;23.88;3.63;;;;;;;4.45;100.00;100945.06;5033678;28;20029;-77
2021/12/07 09:10:47;;;;;;;9.60;2.50;;;;;;;4.44;100.00;100950.22;5040362;28;20026;-77
2021/12/07 09:13:12;;;;;;;15.63;3.42;;;;;;;4.49;100.00;100951.28;5038825;28;20036;-78
2021/12/07 09:15:38;;;;;;;13.20;3.08;;;;;;;4.55;100.00;100941.13;5028753;28;20144;-76
2021/12/07 09:18:04;;;;;;;18.65;2.72;;;;;;;4.64;100.00;100940.63;5036033;28;20508;-77
2021/12/07 09:20:32;;;;;;;13.77;2.50;;;;;;;4.76;100.00;100948.06;5032562;28;20021;-77
2021/12/07 09:22:57;;;;;;;10.65;2.78;;;;;;;4.77;99.99;100942.03;5045512;28;20486;-76
2021/12/07 09:25:23;;;;;;;18.55;3.65;;;;;;;4.82;100.00;100940.53;5033504;28;20033;-77
2021/12/07 09:27:48;;;;;;;18.35;2.83;;;;;;;4.84;100.00;100939.75;5033905;28;20037;-77
2021/12/07 09:30:15;;;;;;;13.43;2.60;;;;;;;4.94;100.00;100935.81;5033534;28;20084;-75
2021/12/07 09:32:42;;;;;;;10.30;2.33;;;;;;;5.06;100.00;100944.13;5034115;28;20036;-75
2021/12/07 09:35:08;;;;;;;16.70;2.97;;;;;;;5.21;99.59;100935.16;5033043;28;20034;-75
2021/12/07 09:37:34;;;;;;;16.70;3.08;;;;;;;5.52;98.44;100928.50;5039443;28;20055;-74
2021/12/07 09:40:00;;;;;;;20.17;2.92;;;;;;;5.69;96.99;100940.47;5047089;28;20028;-75
2021/12/07 09:42:26;;;;;;;12.38;3.08;;;;;;;5.74;96.23;100941.53;5047315;28;20029;-75
2021/12/07 09:44:52;;;;;;;14.35;2.70;;;;;;;5.78;95.55;100946.88;5040235;28;20032;-75
2021/12/07 09:47:18;;;;;;;13.57;2.97;;;;;;;5.85;94.91;100954.13;5042702;28;20291;-75
2021/12/07 09:49:44;;;;;;;15.25;3.25;;;;;;;5.90;94.29;100944.72;5036981;28;20519;-75
2021/12/07 09:52:09;;;;;;;11.20;2.47;;;;;;;5.93;94.63;100950.06;5044953;28;20473;-75
2021/12/07 09:54:35;;;;;;;14.55;3.25;;;;;;;5.79;94.67;100953.88;5038726;28;20029;-75
2021/12/07 09:57:01;;;;;;;14.80;2.92;;;;;;;5.85;93.77;100951.50;5037965;28;20115;-75
2021/12/07 09:59:26;;;;;;;14.18;3.53;;;;;;;6.00;93.34;100954.72;5038097;28;20033;-75
2021/12/07 10:01:53;;;;;;;12.68;3.13;;;;;;;6.36;92.80;100956.91;5042889;28;20029;-75
2021/12/07 10:04:24;;;;;;;18.05;3.22;;;;;;;6.62;91.30;100949.06;5041192;28;20121;-75
2021/12/07 10:06:49;;;;;;;27.35;4.60;;;;;;;6.99;89.56;100945.06;5040254;28;20037;-77
2021/12/07 10:09:15;;;;;;;16.13;3.30;;;;;;;7.38;88.04;100941.94;5047485;28;20523;-77
2021/12/07 10:11:40;;;;;;;13.98;3.13;;;;;;;7.55;86.94;100937.22;5038168;28;20030;-76
2021/12/07 10:14:06;;;;;;;11.95;3.15;;;;;;;7.58;84.96;100931.19;5038379;28;20033;-78
2021/12/07 10:16:31;;;;;;;10.15;2.85;;;;;;;7.64;84.47;100926.13;5042795;28;20032;-77
2021/12/07 10:18:58;;;;;;;16.83;4.00;;;;;;;7.54;84.19;100916.22;5042921;28;20525;-77
2021/12/07 10:21:27;;;;;;;13.73;3.42;;;;;;;7.97;84.34;100901.75;5048652;28;20049;-77
2021/12/07 10:24:06;;;;;;;18.50;3.60;;;;;;;8.16;82.13;100894.41;5040802;28;20056;-77
2021/12/07 10:26:35;;;;;;;11.93;3.63;;;;;;;8.58;80.79;100888.53;5040779;28;20029;-79
2021/12/07 10:29:13;;;;;;;14.15;3.58;;;;;;;8.71;79.15;100872.28;5044502;28;20057;-77
2021/12/07 10:31:43;;;;;;;16.38;3.13;;;;;;;8.40;79.04;100862.72;5027749;28;20435;-79
2021/12/07 10:34:15;;;;;;;10.80;2.70;;;;;;;8.59;77.79;100864.09;5045044;28;20481;-76
2021/12/07 10:36:50;;;;;;;12.10;2.53;;;;;;;8.75;77.73;100861.00;5040204;28;20121;-77
2021/12/07 10:39:34;;;;;;;8.93;2.90;;;;;;;8.98;76.85;100841.38;5039516;28;20044;-77
2021/12/07 10:42:03;;;;;;;13.63;3.08;;;;;;;9.27;75.42;100840.31;5040355;28;20018;-77
2021/12/07 10:44:32;;;;;;;10.43;2.92;;;;;;;9.38;74.54;100839.66;5047770;28;20029;-78
2021/12/07 10:46:58;;;;;;;11.45;2.95;;;;;;;9.25;74.27;100830.63;5049036;28;20074;-78
2021/12/07 10:49:25;;;;;;;15.85;3.30;;;;;;;9.37;73.57;100836.16;5037821;28;20036;-77
2021/12/07 10:52:03;;;;;;;11.25;3.38;;;;;;;9.37;74.17;100835.25;5043643;28;20085;-78
2021/12/07 10:54:33;;;;;;;12.48;3.08;;;;;;;9.13;74.16;100830.34;5042732;28;20086;-77
2021/12/07 10:57:02;;;;;;;14.85;3.78;;;;;;;9.50;73.90;100825.91;5035495;28;20389;-77
2021/12/07 10:59:27;;;;;;;16.10;3.22;;;;;;;9.01;73.25;100831.84;5042187;28;20469;-77
2021/12/07 11:01:54;;;;;;;10.27;2.95;;;;;;;8.46;75.39;100838.41;5040277;28;20036;-78
2021/12/07 11:04:29;;;;;;;14.43;4.65;;;;;;;7.65;79.04;100854.59;5037957;28;20424;-76
2021/12/07 11:07:10;;;;;;;15.43;4.35;;;;;;;7.47;80.10;100854.06;5038050;28;20021;-76
2021/12/07 11:10:01;;;;;;;16.98;4.82;;;;;;;7.13;82.00;100853.03;5030948;28;20111;-77
2021/12/07 11:12:33;;;;;;;16.98;4.68;;;;;;;7.17;83.10;100849.69;5041435;28;20053;-76
2021/12/07 11:15:00;;;;;;;18.83;4.78;;;;;;;7.48;81.91;100834.88;5040064;28;20037;-76
2021/12/07 11:17:34;;;;;;;17.23;4.63;;;;;;;7.94;80.33;100830.94;5042074;28;20508;-77
2021/12/07 11:20:01;;;;;;;18.75;5.53;;;;;;;7.61;79.75;100826.53;5043681;28;20036;-78
2021/12/07 11:22:31;;;;;;;15.27;4.93;;;;;;;7.19;81.58;100837.50;5021266;28;20037;-78
2021/12/07 11:25:01;;;;;;;17.10;4.15;;;;;;;6.88;82.37;100821.78;5037348;28;20030;-78
2021/12/07 11:30:17;;;;;;;19.60;4.45;;;;;;;6.71;84.12;100822.97;5037895;28;20135;-79
2021/12/07 11:32:55;;;;;;;20.17;4.38;;;;;;;6.96;82.47;100814.16;5037871;28;20022;-79
2021/12/07 11:35:33;;;;;;;23.52;4.38;;;;;;;7.32;81.50;100808.25;5036810;28;20035;-79
2021/12/07 11:38:03;;;;;;;22.65;4.88;;;;;;;7.39;79.64;100794.50;5039110;28;20033;-78
2021/12/07 11:40:33;;;;;;;17.77;5.15;;;;;;;7.23;79.04;100781.78;5036063;28;20033;-79
2021/12/07 11:43:00;;;;;;;26.35;5.80;;;;;;;6.91;80.27;100786.97;5040272;28;20044;-79
2021/12/07 11:45:33;;;;;;;19.30;5.30;;;;;;;6.97;81.18;100778.41;5033839;28;20029;-79
2021/12/07 11:48:05;;;;;;;22.55;4.95;;;;;;;6.98;81.40;100770.63;5038587;28;20045;-79
2021/12/07 11:50:36;;;;;;;27.27;6.38;;;;;;;7.27;80.92;100768.00;5050791;28;20032;-78
2021/12/07 11:53:06;;;;;;;21.20;5.75;;;;;;;7.45;80.13;100762.38;5036849;28;20051;-78
2021/12/07 11:55:35;;;;;;;32.00;6.88;;;;;;;7.56;79.65;100755.69;5046760;28;20413;-78
2021/12/07 11:58:03;;;;;;;26.15;7.28;;;;;;;7.69;78.06;100729.81;5046789;28;20039;-78
2021/12/07 12:00:38;;;;;;;30.30;6.68;;;;;;;7.68;78.38;100723.72;5039228;28;20041;-78
2021/12/07 12:03:06;;;;;;;31.98;8.68;;;;;;;7.79;78.53;100715.25;5035068;28;20029;-79
2021/12/07 12:05:33;;;;;;;25.02;6.88;;;;;;;7.87;77.87;100708.50;5034082;28;20027;-78
2021/12/07 12:07:59;;;;;;;35.72;8.38;;;;;;;7.87;76.80;100687.53;5033903;28;20080;-79
2021/12/07 12:10:25;;;;;;;30.25;7.68;;;;;;;7.88;76.39;100689.28;5036531;28;20021;-79
2021/12/07 12:13:10;;;;;;;32.08;6.35;;;;;;;8.11;75.84;100687.22;5034396;28;20029;-79
2021/12/07 12:15:39;;;;;;;20.63;5.88;;;;;;;8.22;75.11;100683.13;5035423;28;20044;-79
2021/12/07 12:18:42;;;;;;;14.07;4.25;;;;;;;8.13;75.31;100674.19;5033332;28;20091;-79
2021/12/07 12:21:19;;;;;;;15.02;3.92;;;;;;;8.22;75.51;100674.38;5033917;28;20037;-78
2021/12/07 12:24:10;;;;;;;13.40;3.22;;;;;;;8.21;74.34;100656.91;5034419;28;20032;-78
2021/12/07 12:26:36;;;;;;;11.65;3.60;;;;;;;7.94;74.91;100658.88;5033749;28;20370;-78
2021/12/07 12:29:24;;;;;;;13.82;3.80;;;;;;;7.92;76.14;100660.59;5036185;28;20172;-78
2021/12/07 12:31:54;;;;;;;16.77;3.75;;;;;;;7.99;76.45;100660.72;5036475;28;20028;-79
2021/12/07 12:34:26;;;;;;;16.27;3.45;;;;;;;8.04;74.95;100649.50;5033112;28;20037;-78
2021/12/07 12:37:07;;;;;;;17.70;3.70;;;;;;;7.87;76.68;100640.38;5035141;28;20044;-78
2021/12/07 12:39:46;;;;;;;13.40;4.72;;;;;;;7.73;77.11;100648.78;5039812;28;20142;-77
2021/12/07 12:42:18;;;;;;;19.98;5.00;;;;;;;7.51;78.30;100642.09;5040408;28;20369;-78
2021/12/07 12:44:44;;;;;;;17.85;5.57;;;;;;;7.39;80.13;100637.44;5034908;28;20021;-77
2021/12/07 12:47:10;;;;;;;14.77;4.32;;;;;;;7.13;79.90;100609.69;5025511;28;20518;-78
2021/12/07 12:49:42;;;;;;;17.70;4.38;;;;;;;7.02;80.74;100598.94;5038408;28;20040;-78
2021/12/07 12:52:08;;;;;;;12.32;3.65;;;;;;;6.82;82.00;100616.69;5037284;28;20029;-78
2021/12/07 12:54:45;;;;;;;16.77;4.32;;;;;;;6.75;82.00;100615.63;5039248;28;20029;-78
2021/12/07 12:57:14;;;;;;;17.80;5.15;;;;;;;6.73;82.27;100586.81;5045442;28;20106;-77
2021/12/07 12:59:42;;;;;;;18.08;4.90;;;;;;;6.62;82.54;100603.03;5033295;28;20060;-78
2021/12/07 13:02:10;;;;;;;17.35;4.22;;;;;;;6.53;82.62;100588.88;5026492;28;20064;-78
2021/12/07 13:04:37;;;;;;;14.77;3.50;;;;;;;6.48;82.75;100586.97;5036741;28;20466;-78
2021/12/07 13:09:43;;;;;;;16.70;4.38;;;;;;;6.30;84.20;100575.13;5042073;28;20080;-78
2021/12/07 13:12:13;;;;;;;13.35;3.42;;;;;;;6.19;83.42;100560.88;5045405;28;20041;-79